메인 페이지
METAR-TAF:

METAR-TAF

공항 :

도지시티, 캔자스, 미국

위도: 37-46-22N, 경도: 099-58-11W, 고도: 790m

현재 날씨관측

예보는 18분 전, 03:52시(UTC)에 발표되었습니다.
남남동7kt
온도 11°C
습도 71%
기압 1024 hPa
시정: 16.1km
맑음

METAR: KDDC 240352Z AUTO 16007KT 10SM CLR 11/06 A3023 RMK AO2 SLP231 T01060061

시각: 23:10 (04:10 UTC)

예보

예보는 4 시간 50분 전, 23:20시(UTC)에 발표되었습니다.
예보 대상 시간: 24일 00시부터 24일 24시까지 (UTC)
10kt
시정: 10km
고도 10000ft 상공 구름 많음
24일 2200시부터 (UTC)
12kt
시정: 9.7km
고도 3000ft 상공 흐림
약한비, 박무

TAF: KDDC 232320Z 2400/2424 17010KT P6SM BKN100 FM242200 17012KT 6SM -RA BR OVC030

4,000개 이상의 공항 관측 자료 및 예보 (METAR 및 TAF 보고).

지도상에서 검색 가능한 기상관측소가 노란 점과 빨간 점으로 표시되어 있습니다.

기상관측소 명을 보려면 표시 위로 마우스를 이동하세요.

날씨 관측과 예보를 보려면 클릭하세요.

지도 변경 : 확대하려면 엑스 표시가 있는 녹색 버튼, 축소하려면 빼기 표시가 있는 녹색 버튼, 다음 페이지의 지도를 보려면 녹색 화살표를 클릭하세요.


METAR-TAF: